sensor_id;sensor_type;location;lat;lon;timestamp;temperature;humidity
60965;DHT22;46834;51.100;6.886;2022-08-25T00:01:46;25.20;31.40
60965;DHT22;46834;51.100;6.886;2022-08-25T00:04:21;25.30;31.50
60965;DHT22;46834;51.100;6.886;2022-08-25T00:06:48;25.20;31.40
60965;DHT22;46834;51.100;6.886;2022-08-25T00:09:17;25.20;31.50
60965;DHT22;46834;51.100;6.886;2022-08-25T00:11:45;25.10;31.50
60965;DHT22;46834;51.100;6.886;2022-08-25T00:14:17;25.20;31.60
60965;DHT22;46834;51.100;6.886;2022-08-25T00:16:47;25.10;31.60
60965;DHT22;46834;51.100;6.886;2022-08-25T00:19:17;25.10;31.60
60965;DHT22;46834;51.100;6.886;2022-08-25T00:21:45;25.10;31.70
60965;DHT22;46834;51.100;6.886;2022-08-25T00:24:13;25.10;31.70
60965;DHT22;46834;51.100;6.886;2022-08-25T00:26:42;25.10;31.70
60965;DHT22;46834;51.100;6.886;2022-08-25T00:29:10;25.00;31.70
60965;DHT22;46834;51.100;6.886;2022-08-25T00:31:37;25.00;31.80
60965;DHT22;46834;51.100;6.886;2022-08-25T00:34:08;25.00;31.80
60965;DHT22;46834;51.100;6.886;2022-08-25T00:36:37;24.90;31.80
60965;DHT22;46834;51.100;6.886;2022-08-25T00:39:04;24.90;31.80
60965;DHT22;46834;51.100;6.886;2022-08-25T00:41:32;24.90;31.90
60965;DHT22;46834;51.100;6.886;2022-08-25T00:44:01;24.90;31.90
60965;DHT22;46834;51.100;6.886;2022-08-25T00:46:34;24.90;32.00
60965;DHT22;46834;51.100;6.886;2022-08-25T00:49:10;24.80;32.20
60965;DHT22;46834;51.100;6.886;2022-08-25T00:51:51;24.80;32.30
60965;DHT22;46834;51.100;6.886;2022-08-25T00:54:27;24.80;32.50
60965;DHT22;46834;51.100;6.886;2022-08-25T00:56:57;24.70;32.30
60965;DHT22;46834;51.100;6.886;2022-08-25T00:59:24;24.70;32.40
60965;DHT22;46834;51.100;6.886;2022-08-25T01:01:52;24.70;32.50
60965;DHT22;46834;51.100;6.886;2022-08-25T01:04:19;24.60;32.60
60965;DHT22;46834;51.100;6.886;2022-08-25T01:06:47;24.60;32.70
60965;DHT22;46834;51.100;6.886;2022-08-25T01:09:14;24.60;32.70
60965;DHT22;46834;51.100;6.886;2022-08-25T01:11:43;24.50;32.80
60965;DHT22;46834;51.100;6.886;2022-08-25T01:14:12;24.50;32.90
60965;DHT22;46834;51.100;6.886;2022-08-25T01:16:41;24.50;32.90
60965;DHT22;46834;51.100;6.886;2022-08-25T01:19:09;24.40;32.80
60965;DHT22;46834;51.100;6.886;2022-08-25T01:21:49;24.40;32.70
60965;DHT22;46834;51.100;6.886;2022-08-25T01:24:33;24.40;32.90
60965;DHT22;46834;51.100;6.886;2022-08-25T01:27:03;24.40;32.90
60965;DHT22;46834;51.100;6.886;2022-08-25T01:29:30;24.30;32.70
60965;DHT22;46834;51.100;6.886;2022-08-25T01:32:00;24.30;33.40
60965;DHT22;46834;51.100;6.886;2022-08-25T01:34:30;24.30;33.90
60965;DHT22;46834;51.100;6.886;2022-08-25T01:36:59;24.30;34.20
60965;DHT22;46834;51.100;6.886;2022-08-25T01:39:27;24.20;34.10
60965;DHT22;46834;51.100;6.886;2022-08-25T01:44:27;24.20;34.70
60965;DHT22;46834;51.100;6.886;2022-08-25T01:46:54;24.20;34.60
60965;DHT22;46834;51.100;6.886;2022-08-25T01:49:20;24.20;34.30
60965;DHT22;46834;51.100;6.886;2022-08-25T01:52:04;24.10;34.20
60965;DHT22;46834;51.100;6.886;2022-08-25T01:54:40;24.20;34.30
60965;DHT22;46834;51.100;6.886;2022-08-25T01:57:06;24.10;34.00
60965;DHT22;46834;51.100;6.886;2022-08-25T01:59:32;24.10;34.00
60965;DHT22;46834;51.100;6.886;2022-08-25T02:01:58;24.10;34.00
60965;DHT22;46834;51.100;6.886;2022-08-25T02:04:23;24.00;34.00
60965;DHT22;46834;51.100;6.886;2022-08-25T02:06:51;24.00;34.00
60965;DHT22;46834;51.100;6.886;2022-08-25T02:09:17;23.90;33.90
60965;DHT22;46834;51.100;6.886;2022-08-25T02:11:45;23.90;34.10
60965;DHT22;46834;51.100;6.886;2022-08-25T02:14:12;23.90;34.20
60965;DHT22;46834;51.100;6.886;2022-08-25T02:16:41;23.90;34.40
60965;DHT22;46834;51.100;6.886;2022-08-25T02:19:10;23.90;34.50
60965;DHT22;46834;51.100;6.886;2022-08-25T02:21:37;23.80;34.70
60965;DHT22;46834;51.100;6.886;2022-08-25T02:24:03;23.80;34.80
60965;DHT22;46834;51.100;6.886;2022-08-25T02:26:30;23.80;34.80
60965;DHT22;46834;51.100;6.886;2022-08-25T02:28:56;23.80;34.80
60965;DHT22;46834;51.100;6.886;2022-08-25T02:31:24;23.70;34.70
60965;DHT22;46834;51.100;6.886;2022-08-25T02:33:51;23.70;34.80
60965;DHT22;46834;51.100;6.886;2022-08-25T02:36:18;23.60;34.60
60965;DHT22;46834;51.100;6.886;2022-08-25T02:38:44;23.60;34.50
60965;DHT22;46834;51.100;6.886;2022-08-25T02:41:20;23.60;34.60
60965;DHT22;46834;51.100;6.886;2022-08-25T02:43:49;23.60;34.80
60965;DHT22;46834;51.100;6.886;2022-08-25T02:46:18;23.50;34.50
60965;DHT22;46834;51.100;6.886;2022-08-25T02:48:45;23.50;34.50
60965;DHT22;46834;51.100;6.886;2022-08-25T02:51:12;23.50;34.50
60965;DHT22;46834;51.100;6.886;2022-08-25T02:53:40;23.40;34.50
60965;DHT22;46834;51.100;6.886;2022-08-25T02:56:11;23.40;34.50
60965;DHT22;46834;51.100;6.886;2022-08-25T02:58:39;23.40;34.50
60965;DHT22;46834;51.100;6.886;2022-08-25T03:01:06;23.30;34.50
60965;DHT22;46834;51.100;6.886;2022-08-25T03:03:37;23.30;34.50
60965;DHT22;46834;51.100;6.886;2022-08-25T03:06:06;23.30;34.50
60965;DHT22;46834;51.100;6.886;2022-08-25T03:08:34;23.30;34.50
60965;DHT22;46834;51.100;6.886;2022-08-25T03:11:00;23.20;34.50
60965;DHT22;46834;51.100;6.886;2022-08-25T03:13:26;23.20;34.50
60965;DHT22;46834;51.100;6.886;2022-08-25T03:15:52;23.20;34.60
60965;DHT22;46834;51.100;6.886;2022-08-25T03:18:18;23.20;34.60
60965;DHT22;46834;51.100;6.886;2022-08-25T03:20:45;23.20;34.60
60965;DHT22;46834;51.100;6.886;2022-08-25T03:23:10;23.10;34.60
60965;DHT22;46834;51.100;6.886;2022-08-25T03:25:39;23.10;34.60
60965;DHT22;46834;51.100;6.886;2022-08-25T03:28:24;23.10;34.70
60965;DHT22;46834;51.100;6.886;2022-08-25T03:30:51;23.00;34.60
60965;DHT22;46834;51.100;6.886;2022-08-25T03:33:18;23.00;34.70
60965;DHT22;46834;51.100;6.886;2022-08-25T03:35:44;23.00;34.70
60965;DHT22;46834;51.100;6.886;2022-08-25T03:38:10;23.00;34.70
60965;DHT22;46834;51.100;6.886;2022-08-25T03:40:36;22.90;34.80
60965;DHT22;46834;51.100;6.886;2022-08-25T03:43:02;22.80;34.70
60965;DHT22;46834;51.100;6.886;2022-08-25T03:45:28;22.80;34.80
60965;DHT22;46834;51.100;6.886;2022-08-25T03:47:54;22.80;35.00
60965;DHT22;46834;51.100;6.886;2022-08-25T03:50:22;22.80;35.00
60965;DHT22;46834;51.100;6.886;2022-08-25T03:52:55;22.80;35.20
60965;DHT22;46834;51.100;6.886;2022-08-25T03:55:23;22.80;35.50
60965;DHT22;46834;51.100;6.886;2022-08-25T03:57:51;22.70;35.30
60965;DHT22;46834;51.100;6.886;2022-08-25T04:00:20;22.70;35.40
60965;DHT22;46834;51.100;6.886;2022-08-25T04:02:47;22.70;35.50
60965;DHT22;46834;51.100;6.886;2022-08-25T04:05:13;22.70;35.50
60965;DHT22;46834;51.100;6.886;2022-08-25T04:07:39;22.70;35.60
60965;DHT22;46834;51.100;6.886;2022-08-25T04:10:07;22.60;35.60
60965;DHT22;46834;51.100;6.886;2022-08-25T04:12:35;22.60;35.80
60965;DHT22;46834;51.100;6.886;2022-08-25T04:15:05;22.60;35.80
60965;DHT22;46834;51.100;6.886;2022-08-25T04:17:36;22.60;35.90
60965;DHT22;46834;51.100;6.886;2022-08-25T04:20:04;22.60;36.00
60965;DHT22;46834;51.100;6.886;2022-08-25T04:22:35;22.60;35.90
60965;DHT22;46834;51.100;6.886;2022-08-25T04:25:02;22.50;35.90
60965;DHT22;46834;51.100;6.886;2022-08-25T04:27:29;22.50;35.90
60965;DHT22;46834;51.100;6.886;2022-08-25T04:29:54;22.50;36.00
60965;DHT22;46834;51.100;6.886;2022-08-25T04:32:20;22.50;36.10
60965;DHT22;46834;51.100;6.886;2022-08-25T04:34:46;22.40;36.10
60965;DHT22;46834;51.100;6.886;2022-08-25T04:37:13;22.40;36.10
60965;DHT22;46834;51.100;6.886;2022-08-25T04:39:39;22.40;36.30
60965;DHT22;46834;51.100;6.886;2022-08-25T04:42:05;22.40;36.40
60965;DHT22;46834;51.100;6.886;2022-08-25T04:44:31;22.30;36.40
60965;DHT22;46834;51.100;6.886;2022-08-25T04:46:57;22.30;36.60
60965;DHT22;46834;51.100;6.886;2022-08-25T04:49:24;22.30;36.70
60965;DHT22;46834;51.100;6.886;2022-08-25T04:51:50;22.30;36.80
60965;DHT22;46834;51.100;6.886;2022-08-25T04:54:16;22.30;36.90
60965;DHT22;46834;51.100;6.886;2022-08-25T04:56:46;22.30;37.00
60965;DHT22;46834;51.100;6.886;2022-08-25T04:59:14;22.20;37.10
60965;DHT22;46834;51.100;6.886;2022-08-25T05:01:42;22.20;37.20
60965;DHT22;46834;51.100;6.886;2022-08-25T05:04:12;22.20;37.30
60965;DHT22;46834;51.100;6.886;2022-08-25T05:06:40;22.20;37.30
60965;DHT22;46834;51.100;6.886;2022-08-25T05:09:06;22.20;37.40
60965;DHT22;46834;51.100;6.886;2022-08-25T05:11:32;22.20;37.50
60965;DHT22;46834;51.100;6.886;2022-08-25T05:13:59;22.20;37.50
60965;DHT22;46834;51.100;6.886;2022-08-25T05:16:27;22.20;37.60
60965;DHT22;46834;51.100;6.886;2022-08-25T05:18:54;22.20;37.60
60965;DHT22;46834;51.100;6.886;2022-08-25T05:21:23;22.30;37.80
60965;DHT22;46834;51.100;6.886;2022-08-25T05:23:57;22.30;38.00
60965;DHT22;46834;51.100;6.886;2022-08-25T05:26:26;22.30;38.20
60965;DHT22;46834;51.100;6.886;2022-08-25T05:28:54;22.30;38.10
60965;DHT22;46834;51.100;6.886;2022-08-25T05:31:22;22.30;38.20
60965;DHT22;46834;51.100;6.886;2022-08-25T05:33:50;22.30;38.40
60965;DHT22;46834;51.100;6.886;2022-08-25T05:36:17;22.30;38.40
60965;DHT22;46834;51.100;6.886;2022-08-25T05:38:44;22.30;38.50
60965;DHT22;46834;51.100;6.886;2022-08-25T05:41:13;22.30;38.50
60965;DHT22;46834;51.100;6.886;2022-08-25T05:43:41;22.30;38.50
60965;DHT22;46834;51.100;6.886;2022-08-25T05:46:09;22.40;38.60
60965;DHT22;46834;51.100;6.886;2022-08-25T05:48:36;22.30;38.60
60965;DHT22;46834;51.100;6.886;2022-08-25T05:51:05;22.40;38.80
60965;DHT22;46834;51.100;6.886;2022-08-25T05:53:35;22.40;39.00
60965;DHT22;46834;51.100;6.886;2022-08-25T05:56:02;22.40;38.90
60965;DHT22;46834;51.100;6.886;2022-08-25T05:58:28;22.40;39.00
60965;DHT22;46834;51.100;6.886;2022-08-25T06:00:57;22.50;39.00
60965;DHT22;46834;51.100;6.886;2022-08-25T06:03:44;22.50;39.10
60965;DHT22;46834;51.100;6.886;2022-08-25T06:06:12;22.60;39.10
60965;DHT22;46834;51.100;6.886;2022-08-25T06:08:38;22.60;39.10
60965;DHT22;46834;51.100;6.886;2022-08-25T06:11:05;22.70;39.20
60965;DHT22;46834;51.100;6.886;2022-08-25T06:13:32;22.70;39.20
60965;DHT22;46834;51.100;6.886;2022-08-25T06:15:59;22.70;39.20
60965;DHT22;46834;51.100;6.886;2022-08-25T06:18:25;22.70;39.20
60965;DHT22;46834;51.100;6.886;2022-08-25T06:20:51;22.80;39.20
60965;DHT22;46834;51.100;6.886;2022-08-25T06:23:16;22.80;39.10
60965;DHT22;46834;51.100;6.886;2022-08-25T06:25:52;22.90;39.20
60965;DHT22;46834;51.100;6.886;2022-08-25T06:28:20;22.90;39.60
60965;DHT22;46834;51.100;6.886;2022-08-25T06:30:46;22.90;39.20
60965;DHT22;46834;51.100;6.886;2022-08-25T06:33:13;23.00;39.40
60965;DHT22;46834;51.100;6.886;2022-08-25T06:35:42;23.00;39.30
60965;DHT22;46834;51.100;6.886;2022-08-25T06:38:09;23.10;39.50
60965;DHT22;46834;51.100;6.886;2022-08-25T06:40:35;23.10;39.30
60965;DHT22;46834;51.100;6.886;2022-08-25T06:43:01;23.20;39.40
60965;DHT22;46834;51.100;6.886;2022-08-25T06:45:30;23.20;39.30
60965;DHT22;46834;51.100;6.886;2022-08-25T06:47:57;23.30;39.40
60965;DHT22;46834;51.100;6.886;2022-08-25T06:50:23;23.30;39.40
60965;DHT22;46834;51.100;6.886;2022-08-25T06:52:49;23.30;39.40
60965;DHT22;46834;51.100;6.886;2022-08-25T06:55:16;23.40;39.50
60965;DHT22;46834;51.100;6.886;2022-08-25T06:57:42;23.50;41.20
60965;DHT22;46834;51.100;6.886;2022-08-25T07:00:08;23.70;41.20
60965;DHT22;46834;51.100;6.886;2022-08-25T07:02:35;24.30;41.80
60965;DHT22;46834;51.100;6.886;2022-08-25T07:05:03;25.00;42.30
60965;DHT22;46834;51.100;6.886;2022-08-25T07:07:30;26.40;41.00
60965;DHT22;46834;51.100;6.886;2022-08-25T07:09:55;27.10;41.50
60965;DHT22;46834;51.100;6.886;2022-08-25T07:12:21;27.90;41.30
60965;DHT22;46834;51.100;6.886;2022-08-25T07:14:49;28.80;40.80
60965;DHT22;46834;51.100;6.886;2022-08-25T07:17:15;29.70;40.10
60965;DHT22;46834;51.100;6.886;2022-08-25T07:19:41;30.50;39.30
60965;DHT22;46834;51.100;6.886;2022-08-25T07:22:07;31.30;38.60
60965;DHT22;46834;51.100;6.886;2022-08-25T07:24:33;31.90;37.80
60965;DHT22;46834;51.100;6.886;2022-08-25T07:26:58;32.60;37.00
60965;DHT22;46834;51.100;6.886;2022-08-25T07:29:26;33.10;36.30
60965;DHT22;46834;51.100;6.886;2022-08-25T07:31:54;33.60;35.60
60965;DHT22;46834;51.100;6.886;2022-08-25T07:34:20;34.10;35.00
60965;DHT22;46834;51.100;6.886;2022-08-25T07:37:05;34.40;34.30
60965;DHT22;46834;51.100;6.886;2022-08-25T07:39:31;34.80;33.80
60965;DHT22;46834;51.100;6.886;2022-08-25T07:41:58;35.00;33.10
60965;DHT22;46834;51.100;6.886;2022-08-25T07:44:25;34.90;32.20
60965;DHT22;46834;51.100;6.886;2022-08-25T07:46:51;34.60;31.40
60965;DHT22;46834;51.100;6.886;2022-08-25T07:49:19;34.20;31.10
60965;DHT22;46834;51.100;6.886;2022-08-25T07:51:46;33.80;30.90
60965;DHT22;46834;51.100;6.886;2022-08-25T07:54:12;33.30;30.90
60965;DHT22;46834;51.100;6.886;2022-08-25T07:56:38;32.70;30.90
60965;DHT22;46834;51.100;6.886;2022-08-25T07:59:08;32.20;31.30
60965;DHT22;46834;51.100;6.886;2022-08-25T08:01:34;31.60;31.20
60965;DHT22;46834;51.100;6.886;2022-08-25T08:04:01;31.20;31.60
60965;DHT22;46834;51.100;6.886;2022-08-25T08:06:27;30.80;31.90
60965;DHT22;46834;51.100;6.886;2022-08-25T08:08:53;30.50;32.20
60965;DHT22;46834;51.100;6.886;2022-08-25T08:11:21;30.10;32.40
60965;DHT22;46834;51.100;6.886;2022-08-25T08:13:59;29.80;32.60
60965;DHT22;46834;51.100;6.886;2022-08-25T08:16:27;29.50;32.70
60965;DHT22;46834;51.100;6.886;2022-08-25T08:18:55;29.30;33.00
60965;DHT22;46834;51.100;6.886;2022-08-25T08:21:28;29.10;33.10
60965;DHT22;46834;51.100;6.886;2022-08-25T08:23:57;28.90;33.30
60965;DHT22;46834;51.100;6.886;2022-08-25T08:26:23;28.80;33.60
60965;DHT22;46834;51.100;6.886;2022-08-25T08:28:49;28.60;33.70
60965;DHT22;46834;51.100;6.886;2022-08-25T08:31:20;28.50;33.90
60965;DHT22;46834;51.100;6.886;2022-08-25T08:33:49;28.30;33.90
60965;DHT22;46834;51.100;6.886;2022-08-25T08:36:15;28.30;34.10
60965;DHT22;46834;51.100;6.886;2022-08-25T08:38:43;28.20;34.20
60965;DHT22;46834;51.100;6.886;2022-08-25T08:52:39;28.00;34.60
60965;DHT22;46834;51.100;6.886;2022-08-25T08:57:52;27.80;35.30
60965;DHT22;46834;51.100;6.886;2022-08-25T09:00:21;27.80;35.10
60965;DHT22;46834;51.100;6.886;2022-08-25T09:05:30;28.00;35.10
60965;DHT22;46834;51.100;6.886;2022-08-25T09:08:10;28.00;35.00
60965;DHT22;46834;51.100;6.886;2022-08-25T09:16:50;28.10;35.00
60965;DHT22;46834;51.100;6.886;2022-08-25T09:26:44;28.20;35.00
60965;DHT22;46834;51.100;6.886;2022-08-25T09:29:21;28.10;35.20
60965;DHT22;46834;51.100;6.886;2022-08-25T09:31:49;28.10;35.20
60965;DHT22;46834;51.100;6.886;2022-08-25T09:34:21;28.20;35.20
60965;DHT22;46834;51.100;6.886;2022-08-25T09:36:52;28.20;35.20
60965;DHT22;46834;51.100;6.886;2022-08-25T09:39:19;28.30;35.20
60965;DHT22;46834;51.100;6.886;2022-08-25T09:41:49;28.30;35.10
60965;DHT22;46834;51.100;6.886;2022-08-25T09:49:59;28.50;35.10
60965;DHT22;46834;51.100;6.886;2022-08-25T09:52:33;28.50;35.00
60965;DHT22;46834;51.100;6.886;2022-08-25T09:57:46;28.60;35.10
60965;DHT22;46834;51.100;6.886;2022-08-25T10:00:31;28.60;35.00
60965;DHT22;46834;51.100;6.886;2022-08-25T10:08:33;28.80;34.80
60965;DHT22;46834;51.100;6.886;2022-08-25T10:11:11;28.80;34.60
60965;DHT22;46834;51.100;6.886;2022-08-25T10:13:48;28.90;34.80
60965;DHT22;46834;51.100;6.886;2022-08-25T10:16:27;29.00;34.80
60965;DHT22;46834;51.100;6.886;2022-08-25T10:19:10;29.00;34.60
60965;DHT22;46834;51.100;6.886;2022-08-25T10:22:05;29.10;34.50
60965;DHT22;46834;51.100;6.886;2022-08-25T10:24:32;29.10;34.50
60965;DHT22;46834;51.100;6.886;2022-08-25T10:27:07;29.10;34.40
60965;DHT22;46834;51.100;6.886;2022-08-25T10:35:27;29.20;34.20
60965;DHT22;46834;51.100;6.886;2022-08-25T10:50:52;29.50;33.90
60965;DHT22;46834;51.100;6.886;2022-08-25T10:56:20;29.60;33.90
60965;DHT22;46834;51.100;6.886;2022-08-25T10:59:05;29.60;33.60
60965;DHT22;46834;51.100;6.886;2022-08-25T11:05:08;29.80;33.60
60965;DHT22;46834;51.100;6.886;2022-08-25T11:07:43;29.80;33.60
60965;DHT22;46834;51.100;6.886;2022-08-25T11:10:19;29.90;33.40
60965;DHT22;46834;51.100;6.886;2022-08-25T11:12:53;29.90;33.50
60965;DHT22;46834;51.100;6.886;2022-08-25T11:15:39;30.00;33.30
60965;DHT22;46834;51.100;6.886;2022-08-25T11:18:13;30.00;33.10
60965;DHT22;46834;51.100;6.886;2022-08-25T11:20:44;30.10;33.20
60965;DHT22;46834;51.100;6.886;2022-08-25T11:23:23;30.10;32.90
60965;DHT22;46834;51.100;6.886;2022-08-25T11:26:13;30.10;32.70
60965;DHT22;46834;51.100;6.886;2022-08-25T11:29:00;30.20;32.80
60965;DHT22;46834;51.100;6.886;2022-08-25T11:31:30;30.20;32.40
60965;DHT22;46834;51.100;6.886;2022-08-25T11:34:02;30.20;32.50
60965;DHT22;46834;51.100;6.886;2022-08-25T11:36:35;30.20;32.40
60965;DHT22;46834;51.100;6.886;2022-08-25T11:39:32;30.20;32.20
60965;DHT22;46834;51.100;6.886;2022-08-25T11:51:30;30.40;31.80
60965;DHT22;46834;51.100;6.886;2022-08-25T11:56:52;30.40;31.30
60965;DHT22;46834;51.100;6.886;2022-08-25T12:02:42;30.50;31.60
60965;DHT22;46834;51.100;6.886;2022-08-25T12:10:57;30.60;31.60
60965;DHT22;46834;51.100;6.886;2022-08-25T12:13:43;30.70;31.50
60965;DHT22;46834;51.100;6.886;2022-08-25T12:27:39;30.80;31.10
60965;DHT22;46834;51.100;6.886;2022-08-25T12:38:44;31.00;31.20
60965;DHT22;46834;51.100;6.886;2022-08-25T12:41:14;31.00;31.00
60965;DHT22;46834;51.100;6.886;2022-08-25T12:43:46;31.00;30.90
60965;DHT22;46834;51.100;6.886;2022-08-25T12:49:03;31.10;30.70
60965;DHT22;46834;51.100;6.886;2022-08-25T12:52:12;31.20;30.60
60965;DHT22;46834;51.100;6.886;2022-08-25T12:57:25;31.20;30.90
60965;DHT22;46834;51.100;6.886;2022-08-25T13:03:49;31.30;30.50
60965;DHT22;46834;51.100;6.886;2022-08-25T13:09:48;31.50;30.40
60965;DHT22;46834;51.100;6.886;2022-08-25T13:15:15;31.60;30.30
60965;DHT22;46834;51.100;6.886;2022-08-25T13:17:51;31.60;30.00
60965;DHT22;46834;51.100;6.886;2022-08-25T13:20:25;31.60;30.00
60965;DHT22;46834;51.100;6.886;2022-08-25T13:22:56;31.60;29.90
60965;DHT22;46834;51.100;6.886;2022-08-25T13:25:27;31.60;29.90
60965;DHT22;46834;51.100;6.886;2022-08-25T13:27:57;31.60;29.90
60965;DHT22;46834;51.100;6.886;2022-08-25T13:30:33;31.60;29.90
60965;DHT22;46834;51.100;6.886;2022-08-25T13:33:19;31.70;29.90
60965;DHT22;46834;51.100;6.886;2022-08-25T13:35:52;31.70;29.80
60965;DHT22;46834;51.100;6.886;2022-08-25T13:38:42;31.80;29.80
60965;DHT22;46834;51.100;6.886;2022-08-25T13:41:15;31.80;29.80
60965;DHT22;46834;51.100;6.886;2022-08-25T13:43:42;31.80;29.80
60965;DHT22;46834;51.100;6.886;2022-08-25T13:46:08;31.80;29.70
60965;DHT22;46834;51.100;6.886;2022-08-25T13:48:40;31.80;29.60
60965;DHT22;46834;51.100;6.886;2022-08-25T13:51:27;31.90;29.60
60965;DHT22;46834;51.100;6.886;2022-08-25T13:54:06;31.90;29.50
60965;DHT22;46834;51.100;6.886;2022-08-25T13:56:40;32.00;29.50
60965;DHT22;46834;51.100;6.886;2022-08-25T13:59:30;32.00;29.30
60965;DHT22;46834;51.100;6.886;2022-08-25T14:02:01;32.00;29.40
60965;DHT22;46834;51.100;6.886;2022-08-25T14:04:45;32.10;29.40
60965;DHT22;46834;51.100;6.886;2022-08-25T14:09:49;32.10;29.10
60965;DHT22;46834;51.100;6.886;2022-08-25T14:12:46;32.10;29.30
60965;DHT22;46834;51.100;6.886;2022-08-25T14:17:43;32.10;29.10
60965;DHT22;46834;51.100;6.886;2022-08-25T14:20:27;32.10;29.10
60965;DHT22;46834;51.100;6.886;2022-08-25T14:22:58;32.20;29.00
60965;DHT22;46834;51.100;6.886;2022-08-25T14:25:29;32.20;29.00
60965;DHT22;46834;51.100;6.886;2022-08-25T14:28:01;32.20;28.80
60965;DHT22;46834;51.100;6.886;2022-08-25T14:30:30;32.20;28.70
60965;DHT22;46834;51.100;6.886;2022-08-25T14:33:00;32.20;28.70
60965;DHT22;46834;51.100;6.886;2022-08-25T14:35:28;32.20;28.60
60965;DHT22;46834;51.100;6.886;2022-08-25T14:37:54;32.20;28.70
60965;DHT22;46834;51.100;6.886;2022-08-25T14:40:21;32.20;28.70
60965;DHT22;46834;51.100;6.886;2022-08-25T14:42:47;32.20;28.60
60965;DHT22;46834;51.100;6.886;2022-08-25T14:45:14;32.20;28.50
60965;DHT22;46834;51.100;6.886;2022-08-25T14:47:40;32.30;28.50
60965;DHT22;46834;51.100;6.886;2022-08-25T14:50:09;32.30;28.40
60965;DHT22;46834;51.100;6.886;2022-08-25T14:52:35;32.30;28.30
60965;DHT22;46834;51.100;6.886;2022-08-25T14:55:01;32.30;28.30
60965;DHT22;46834;51.100;6.886;2022-08-25T14:57:27;32.30;28.20
60965;DHT22;46834;51.100;6.886;2022-08-25T14:59:53;32.30;28.20
60965;DHT22;46834;51.100;6.886;2022-08-25T15:02:20;32.40;28.20
60965;DHT22;46834;51.100;6.886;2022-08-25T15:04:54;32.40;28.10
60965;DHT22;46834;51.100;6.886;2022-08-25T15:07:22;32.40;28.10
60965;DHT22;46834;51.100;6.886;2022-08-25T15:10:08;32.40;28.00
60965;DHT22;46834;51.100;6.886;2022-08-25T15:12:34;32.40;27.90
60965;DHT22;46834;51.100;6.886;2022-08-25T15:15:00;32.40;27.90
60965;DHT22;46834;51.100;6.886;2022-08-25T15:17:27;32.40;27.80
60965;DHT22;46834;51.100;6.886;2022-08-25T15:19:53;32.40;27.70
60965;DHT22;46834;51.100;6.886;2022-08-25T15:22:19;32.40;27.70
60965;DHT22;46834;51.100;6.886;2022-08-25T15:24:44;32.40;27.80
60965;DHT22;46834;51.100;6.886;2022-08-25T15:27:11;32.40;27.70
60965;DHT22;46834;51.100;6.886;2022-08-25T15:29:39;32.40;27.70
60965;DHT22;46834;51.100;6.886;2022-08-25T15:32:07;32.40;27.60
60965;DHT22;46834;51.100;6.886;2022-08-25T15:34:34;32.40;27.60
60965;DHT22;46834;51.100;6.886;2022-08-25T15:37:09;32.40;27.50
60965;DHT22;46834;51.100;6.886;2022-08-25T15:39:38;32.40;27.50
60965;DHT22;46834;51.100;6.886;2022-08-25T15:42:07;32.40;27.60
60965;DHT22;46834;51.100;6.886;2022-08-25T15:44:34;32.40;27.60
60965;DHT22;46834;51.100;6.886;2022-08-25T15:47:00;32.40;27.50
60965;DHT22;46834;51.100;6.886;2022-08-25T15:49:26;32.40;27.50
60965;DHT22;46834;51.100;6.886;2022-08-25T15:51:53;32.40;27.40
60965;DHT22;46834;51.100;6.886;2022-08-25T15:54:21;32.40;27.50
60965;DHT22;46834;51.100;6.886;2022-08-25T15:56:47;32.40;27.50
60965;DHT22;46834;51.100;6.886;2022-08-25T15:59:14;32.40;27.60
60965;DHT22;46834;51.100;6.886;2022-08-25T16:01:40;32.30;27.60
60965;DHT22;46834;51.100;6.886;2022-08-25T16:04:07;32.40;27.60
60965;DHT22;46834;51.100;6.886;2022-08-25T16:06:33;32.30;27.50
60965;DHT22;46834;51.100;6.886;2022-08-25T16:09:00;32.40;27.50
60965;DHT22;46834;51.100;6.886;2022-08-25T16:11:28;32.30;27.30
60965;DHT22;46834;51.100;6.886;2022-08-25T16:13:56;32.30;27.60
60965;DHT22;46834;51.100;6.886;2022-08-25T16:16:24;32.30;27.70
60965;DHT22;46834;51.100;6.886;2022-08-25T16:18:52;32.20;27.70
60965;DHT22;46834;51.100;6.886;2022-08-25T16:21:22;32.20;27.60
60965;DHT22;46834;51.100;6.886;2022-08-25T16:23:52;32.10;27.60
60965;DHT22;46834;51.100;6.886;2022-08-25T16:26:19;32.10;27.60
60965;DHT22;46834;51.100;6.886;2022-08-25T16:28:45;32.10;27.60
60965;DHT22;46834;51.100;6.886;2022-08-25T16:31:13;32.10;28.10
60965;DHT22;46834;51.100;6.886;2022-08-25T16:33:40;32.10;27.60
60965;DHT22;46834;51.100;6.886;2022-08-25T16:36:21;32.10;27.60
60965;DHT22;46834;51.100;6.886;2022-08-25T16:38:49;32.10;27.50
60965;DHT22;46834;51.100;6.886;2022-08-25T16:41:22;32.10;27.50
60965;DHT22;46834;51.100;6.886;2022-08-25T16:43:59;32.00;27.40
60965;DHT22;46834;51.100;6.886;2022-08-25T16:46:26;32.00;27.40
60965;DHT22;46834;51.100;6.886;2022-08-25T16:48:52;32.00;27.40
60965;DHT22;46834;51.100;6.886;2022-08-25T16:51:20;32.00;27.40
60965;DHT22;46834;51.100;6.886;2022-08-25T16:53:47;31.90;27.40
60965;DHT22;46834;51.100;6.886;2022-08-25T16:56:33;31.90;27.40
60965;DHT22;46834;51.100;6.886;2022-08-25T16:59:01;31.80;27.40
60965;DHT22;46834;51.100;6.886;2022-08-25T17:01:29;31.80;27.30
60965;DHT22;46834;51.100;6.886;2022-08-25T17:03:58;31.70;27.30
60965;DHT22;46834;51.100;6.886;2022-08-25T17:06:26;31.70;27.30
60965;DHT22;46834;51.100;6.886;2022-08-25T17:08:53;31.70;27.30
60965;DHT22;46834;51.100;6.886;2022-08-25T17:11:25;31.60;27.30
60965;DHT22;46834;51.100;6.886;2022-08-25T17:13:56;31.60;27.30
60965;DHT22;46834;51.100;6.886;2022-08-25T17:16:29;31.50;27.30
60965;DHT22;46834;51.100;6.886;2022-08-25T17:18:59;31.50;27.30
60965;DHT22;46834;51.100;6.886;2022-08-25T17:21:29;31.50;27.30
60965;DHT22;46834;51.100;6.886;2022-08-25T17:23:59;31.40;27.30
60965;DHT22;46834;51.100;6.886;2022-08-25T17:26:26;31.40;27.30
60965;DHT22;46834;51.100;6.886;2022-08-25T17:28:53;31.30;27.30
60965;DHT22;46834;51.100;6.886;2022-08-25T17:31:19;31.30;27.30
60965;DHT22;46834;51.100;6.886;2022-08-25T17:33:45;31.30;27.30
60965;DHT22;46834;51.100;6.886;2022-08-25T17:36:12;31.20;27.30
60965;DHT22;46834;51.100;6.886;2022-08-25T17:38:39;31.20;27.80
60965;DHT22;46834;51.100;6.886;2022-08-25T17:41:07;31.20;27.30
60965;DHT22;46834;51.100;6.886;2022-08-25T17:43:37;31.20;27.30
60965;DHT22;46834;51.100;6.886;2022-08-25T17:46:05;31.10;27.30
60965;DHT22;46834;51.100;6.886;2022-08-25T17:48:33;31.10;27.30
60965;DHT22;46834;51.100;6.886;2022-08-25T17:51:00;31.00;27.30
60965;DHT22;46834;51.100;6.886;2022-08-25T17:53:26;31.00;27.30
60965;DHT22;46834;51.100;6.886;2022-08-25T17:56:01;31.00;27.30
60965;DHT22;46834;51.100;6.886;2022-08-25T17:58:34;30.90;27.30
60965;DHT22;46834;51.100;6.886;2022-08-25T18:01:00;30.90;27.40